Kerkük, Irak

Saat: 12:56 AM AST Tarih: 01 Ekim 2016 (GMT +0300)
Erbeel | | Change Station

Elev 1378 ft 36.15 °N, 44.00 °E | Updated 56 minutes ago

Clear
Açık
75
Feels Like 75
N
14
Rüzgar Değişken Rüzgar from KKD

Bugün
High -- | Low -- F°
--% Chance of Precip.
Dün
High -- | Low -- F°
Precip. -- inç
Basınç 29.83 inç
Görüş Uzaklığı 5.0 mil
Bulutlar
Çiğ noktası 34
Nem oranı 22%
Yağış 0.00 inç
Kar Kalınlığı Not available.
5:57 AM 5:45 PM
Hilal, 0% visible
METAR ORER 302100Z 02012KT 8000 NSC 24/01 Q1010 NOSIG
Basınç 29.83 inç
Görüş Uzaklığı 5.0 mil
Bulutlar
Çiğ noktası 34
Nem oranı 22%
Yağış 0.00 inç
Kar Kalınlığı Not available.
5:57 AM 5:45 PM
Hilal, 0% visible
METAR ORER 302100Z 02012KT 8000 NSC 24/01 Q1010 NOSIG

10-Day Weather Forecast

No radar image for this location.
×

Almanac

Gökbilim

Oct. 01, 2016 Rise Set
Gerçek Zaman
Günlük Tan
Deniz Tanı
Geceyarısı Yıldız Zamanı
Ay
Görünür Işığın Uzunluğu
Günün Uzunluğu
Tomorrow will be .
, % of the Moon is Illuminated

Günün En Yüksekleri

Country Highs Country Lows

Community

WunderPhotos

Upload Photos

1,942,794 photos uploaded!

WunderBlog® & News

Nearby

Hava Kalitesi

  Hava Kalitesi Hava Kalitesi Endeksi Kirletici
Not available.

Kar Kalınlığı

Station Depth Yükseklik

Earthquake Activity

Şehir Distance Mag. Time & Date
Minimum magnitude displayed is 2.5.

Coastal Water Temperatures

Yer Sıcaklık

Stations

Nearby Weather Stations

Station Location Sıcaklık Rüzgar Etkisi Çiğ noktası Nem oranı Rüzgar Precip. Elev Güncellenme Zamanı Biçim